Time;durP1;ratioP1;P1;durP2;ratioP2;P2;SDS_P1;SDS_P2;PMS_P1;PMS_P2;Temp;Humidity;BMP_temperature;BMP_pressure;BME280_temperature;BME280_humidity;BME280_pressure;Samples;Min_cycle;Max_cycle;Signal;HPM_P1;HPM_P2
2022/07/07 00:01:29;;;;;;;5.30;1.20;;;;;;;12.19;69.65;100655.63;105855;1273;23997;-60
2022/07/07 00:04:00;;;;;;;6.50;1.20;;;;;;;12.20;69.66;100655.58;105967;1273;22582;-59
2022/07/07 00:06:29;;;;;;;6.30;1.20;;;;;;;12.20;69.75;100654.94;106207;1273;24390;-59
2022/07/07 00:08:59;;;;;;;7.80;1.30;;;;;;;12.21;69.74;100652.50;105968;1273;22588;-59
2022/07/07 00:11:29;;;;;;;6.80;1.30;;;;;;;12.22;70.03;100649.02;106118;1273;25575;-59
2022/07/07 00:13:58;;;;;;;5.80;1.60;;;;;;;12.24;70.08;100650.52;106097;1274;22506;-60
2022/07/07 00:16:27;;;;;;;7.90;1.30;;;;;;;12.25;70.32;100649.01;106187;1272;25766;-62
2022/07/07 00:18:56;;;;;;;11.90;1.50;;;;;;;12.27;70.32;100653.06;105839;1273;24218;-59
2022/07/07 00:21:25;;;;;;;10.30;1.60;;;;;;;12.28;70.20;100653.66;105928;1273;25344;-59
2022/07/07 00:23:53;;;;;;;7.80;1.50;;;;;;;12.29;70.29;100650.41;105743;1271;22540;-59
2022/07/07 00:26:22;;;;;;;8.90;1.50;;;;;;;12.29;70.50;100653.27;105890;1273;24323;-58
2022/07/07 00:28:51;;;;;;;7.40;1.50;;;;;;;12.30;70.61;100655.86;106018;1273;24299;-59
2022/07/07 00:31:20;;;;;;;6.80;1.50;;;;;;;12.30;70.60;100652.56;105985;1271;24322;-59
2022/07/07 00:33:50;;;;;;;8.90;1.70;;;;;;;12.30;70.82;100653.29;106043;1273;22708;-60
2022/07/07 00:36:19;;;;;;;5.70;1.50;;;;;;;12.31;70.71;100648.55;105574;1273;22579;-59
2022/07/07 00:38:49;;;;;;;13.50;1.60;;;;;;;12.31;70.98;100650.90;106093;1273;22710;-59
2022/07/07 00:41:17;;;;;;;7.30;1.20;;;;;;;12.33;70.97;100650.90;105689;1275;24472;-59
2022/07/07 00:43:47;;;;;;;7.80;1.40;;;;;;;12.36;71.03;100649.73;105699;1273;24319;-60
2022/07/07 00:46:17;;;;;;;4.60;1.50;;;;;;;12.38;71.10;100651.98;105729;1273;22579;-60
2022/07/07 00:48:46;;;;;;;8.70;1.40;;;;;;;12.41;71.40;100646.45;106047;1273;22633;-59
2022/07/07 00:51:15;;;;;;;8.40;1.40;;;;;;;12.44;71.37;100643.98;106007;1273;23922;-59
2022/07/07 00:53:44;;;;;;;6.90;1.60;;;;;;;12.46;71.51;100638.35;105816;1273;22558;-59
2022/07/07 00:56:13;;;;;;;6.40;1.40;;;;;;;12.47;71.73;100635.32;105921;1273;26495;-59
2022/07/07 00:58:42;;;;;;;6.00;1.20;;;;;;;12.47;71.82;100637.46;105917;1273;25363;-59
2022/07/07 01:01:11;;;;;;;10.20;1.50;;;;;;;12.48;71.67;100643.17;106194;1271;22511;-60
2022/07/07 01:03:40;;;;;;;12.20;1.90;;;;;;;12.49;71.96;100640.85;106068;1272;26554;-60
2022/07/07 01:06:11;;;;;;;8.20;1.90;;;;;;;12.48;72.07;100637.70;106038;1273;24608;-59
2022/07/07 01:08:40;;;;;;;7.10;1.60;;;;;;;12.45;72.04;100640.48;106021;1274;24581;-59
2022/07/07 01:11:10;;;;;;;7.30;1.40;;;;;;;12.42;71.99;100639.30;105823;1271;25217;-59
2022/07/07 01:13:41;;;;;;;7.70;1.50;;;;;;;12.38;72.13;100636.73;105995;1273;22707;-60
2022/07/07 01:16:12;;;;;;;6.80;1.60;;;;;;;12.33;71.98;100637.11;105748;1272;24316;-60
2022/07/07 01:18:42;;;;;;;7.90;1.80;;;;;;;12.30;72.08;100635.62;105970;1273;25262;-60
2022/07/07 01:21:13;;;;;;;8.20;1.60;;;;;;;12.25;72.30;100634.05;106057;1274;24086;-60
2022/07/07 01:23:41;;;;;;;8.00;1.60;;;;;;;12.21;72.62;100632.25;105798;1273;25322;-59
2022/07/07 01:26:10;;;;;;;6.40;1.30;;;;;;;12.19;72.69;100628.77;105899;1273;24364;-58
2022/07/07 01:28:41;;;;;;;6.80;1.60;;;;;;;12.17;72.58;100626.33;106103;1273;22639;-59
2022/07/07 01:31:11;;;;;;;6.60;1.40;;;;;;;12.12;72.68;100623.39;106133;1273;25990;-60
2022/07/07 01:33:40;;;;;;;10.80;1.50;;;;;;;12.08;72.68;100622.65;105985;1273;22569;-60
2022/07/07 01:36:13;;;;;;;7.00;1.60;;;;;;;12.04;72.95;100622.83;106011;1273;25268;-60
2022/07/07 01:38:42;;;;;;;8.30;1.60;;;;;;;12.01;73.00;100621.25;106034;1273;22782;-59
2022/07/07 01:41:13;;;;;;;10.90;1.50;;;;;;;11.98;73.17;100618.84;106024;1271;22560;-59
2022/07/07 01:43:40;;;;;;;;;;;;;;;11.95;73.20;100619.65;105931;1273;22454;-59
2022/07/07 01:46:09;;;;;;;10.80;1.50;;;;;;;11.90;73.36;100617.77;105764;1273;22580;-59
2022/07/07 01:48:38;;;;;;;8.40;1.60;;;;;;;11.86;73.43;100618.77;105916;1273;22580;-58
2022/07/07 01:51:07;;;;;;;8.50;1.20;;;;;;;11.82;73.57;100616.48;105802;1273;22557;-59
2022/07/07 01:53:36;;;;;;;9.60;1.60;;;;;;;11.79;73.68;100615.92;105801;1271;22753;-60
2022/07/07 01:56:07;;;;;;;5.30;1.10;;;;;;;11.77;73.69;100611.41;105985;1273;23078;-59
2022/07/07 01:58:36;;;;;;;8.90;1.30;;;;;;;11.76;73.84;100615.15;106054;1272;24315;-59
2022/07/07 02:01:04;;;;;;;9.40;1.50;;;;;;;11.73;73.85;100615.80;105774;1273;22699;-59
2022/07/07 02:03:33;;;;;;;6.20;1.50;;;;;;;11.70;73.97;100614.32;105893;1273;25598;-58
2022/07/07 02:06:02;;;;;;;3.40;1.10;;;;;;;11.69;74.26;100608.80;106063;1273;25497;-59
2022/07/07 02:08:31;;;;;;;6.20;1.20;;;;;;;11.69;74.24;100600.70;105959;1273;24238;-59
2022/07/07 02:11:15;;;;;;;4.50;1.30;;;;;;;11.69;74.25;100601.73;105859;1273;22812;-60
2022/07/07 02:13:45;;;;;;;7.40;1.10;;;;;;;11.68;74.29;100602.98;105771;1273;23081;-60
2022/07/07 02:16:13;;;;;;;;;;;;;;;11.67;74.46;100602.77;105730;1273;22532;-60
2022/07/07 02:18:43;;;;;;;4.30;1.10;;;;;;;11.63;74.63;100602.51;105990;1273;25557;-59
2022/07/07 02:21:15;;;;;;;7.90;1.40;;;;;;;11.62;74.59;100605.84;106035;1274;25379;-59
2022/07/07 02:23:45;;;;;;;6.10;1.40;;;;;;;11.61;74.65;100604.94;105953;1273;25351;-59
2022/07/07 02:26:14;;;;;;;6.50;1.30;;;;;;;11.59;74.78;100603.58;105875;1273;22705;-61
2022/07/07 02:28:44;;;;;;;7.10;1.40;;;;;;;11.57;74.77;100603.76;105840;1273;24276;-60
2022/07/07 02:31:13;;;;;;;5.80;1.20;;;;;;;11.56;74.85;100605.20;105820;1273;25506;-60
2022/07/07 02:33:42;;;;;;;3.50;1.10;;;;;;;11.55;75.12;100604.20;105760;1273;24312;-60
2022/07/07 02:36:12;;;;;;;7.90;1.10;;;;;;;11.54;75.07;100603.27;105885;1272;22639;-60
2022/07/07 02:38:41;;;;;;;7.10;1.20;;;;;;;11.54;75.15;100600.83;106009;1271;22526;-60
2022/07/07 02:41:11;;;;;;;8.70;1.30;;;;;;;11.51;75.20;100602.81;105836;1271;22791;-59
2022/07/07 02:43:39;;;;;;;10.70;1.70;;;;;;;11.49;75.29;100602.98;106081;1273;25539;-59
2022/07/07 02:46:09;;;;;;;8.80;1.60;;;;;;;11.48;75.48;100606.26;106037;1273;22538;-60
2022/07/07 02:48:38;;;;;;;6.60;1.60;;;;;;;11.47;75.63;100602.87;106179;1273;22555;-59
2022/07/07 02:51:08;;;;;;;9.00;1.80;;;;;;;11.45;75.84;100605.84;105974;1273;22557;-61
2022/07/07 02:53:37;;;;;;;10.10;1.60;;;;;;;11.43;75.75;100605.33;105800;1271;22553;-61
2022/07/07 02:56:06;;;;;;;9.00;1.70;;;;;;;11.40;75.68;100605.42;105823;1273;26506;-59
2022/07/07 02:58:35;;;;;;;8.90;1.50;;;;;;;11.38;75.88;100605.55;105807;1273;22513;-58
2022/07/07 03:01:04;;;;;;;6.90;1.50;;;;;;;11.35;76.02;100604.32;106059;1271;24429;-57
2022/07/07 03:03:33;;;;;;;6.30;1.90;;;;;;;11.35;75.95;100602.36;105874;1271;23091;-60
2022/07/07 03:06:03;;;;;;;7.00;1.60;;;;;;;11.34;75.93;100598.73;105817;1272;22565;-59
2022/07/07 03:08:32;;;;;;;6.80;1.40;;;;;;;11.32;75.82;100601.69;105246;1274;727692;-59
2022/07/07 03:11:01;;;;;;;7.10;1.80;;;;;;;11.31;76.05;100598.29;105802;1271;22624;-59
2022/07/07 03:13:31;;;;;;;7.80;1.50;;;;;;;11.31;76.24;100594.09;105795;1271;22563;-59
2022/07/07 03:16:00;;;;;;;5.50;1.30;;;;;;;11.31;76.42;100597.52;105936;1272;25305;-59
2022/07/07 03:18:29;;;;;;;6.40;1.40;;;;;;;11.33;76.45;100596.68;106213;1273;22565;-60
2022/07/07 03:20:58;;;;;;;9.80;1.40;;;;;;;11.34;76.73;100593.84;106215;1273;25384;-59
2022/07/07 03:23:27;;;;;;;4.80;1.50;;;;;;;11.36;76.91;100592.44;106009;1273;22554;-59
2022/07/07 03:25:55;;;;;;;7.10;1.60;;;;;;;11.38;76.81;100588.41;106124;1274;22575;-64
2022/07/07 03:28:24;;;;;;;9.70;1.50;;;;;;;11.42;76.99;100586.05;105937;1274;25480;-60
2022/07/07 03:30:53;;;;;;;14.40;2.00;;;;;;;11.43;77.09;100585.16;105992;1273;22534;-59
2022/07/07 03:33:23;;;;;;;9.90;1.60;;;;;;;11.45;77.20;100582.60;105975;1271;24271;-60
2022/07/07 03:35:51;;;;;;;11.40;1.70;;;;;;;11.47;77.26;100582.73;105927;1274;22737;-59
2022/07/07 03:38:20;;;;;;;13.40;1.80;;;;;;;11.50;77.64;100583.31;105897;1273;22709;-59
2022/07/07 03:40:49;;;;;;;7.30;1.90;;;;;;;11.53;77.66;100586.58;105892;1273;22725;-60
2022/07/07 03:43:20;;;;;;;10.50;1.90;;;;;;;11.57;77.95;100585.89;105832;1273;24287;-60
2022/07/07 03:45:50;;;;;;;9.40;1.80;;;;;;;11.61;77.86;100584.50;105831;1274;23158;-59
2022/07/07 03:48:20;;;;;;;8.20;1.70;;;;;;;11.66;78.00;100582.73;105796;1273;22550;-62
2022/07/07 03:50:49;;;;;;;7.40;2.20;;;;;;;11.70;78.36;100583.48;105894;1273;22560;-58
2022/07/07 03:53:18;;;;;;;8.70;2.00;;;;;;;11.73;78.53;100577.65;105837;1274;22551;-59
2022/07/07 03:55:47;;;;;;;12.50;3.00;;;;;;;11.77;78.29;100578.95;105854;1273;24386;-59
2022/07/07 03:58:16;;;;;;;12.30;2.40;;;;;;;11.80;78.46;100578.73;105952;1273;22678;-60
2022/07/07 04:00:45;;;;;;;9.70;2.00;;;;;;;11.83;78.33;100583.61;106009;1273;23979;-58
2022/07/07 04:03:14;;;;;;;17.40;3.10;;;;;;;11.86;78.32;100585.13;105895;1274;22541;-59
2022/07/07 04:05:43;;;;;;;15.00;2.40;;;;;;;11.89;78.20;100584.80;106072;1274;22734;-59
2022/07/07 04:08:12;;;;;;;15.80;2.50;;;;;;;11.94;78.39;100582.50;106038;1273;24255;-60
2022/07/07 04:10:41;;;;;;;11.60;2.40;;;;;;;12.00;78.51;100578.34;105961;1274;25266;-58
2022/07/07 04:13:10;;;;;;;11.90;2.40;;;;;;;12.08;78.44;100580.91;105828;1273;25246;-59
2022/07/07 04:15:39;;;;;;;12.80;2.30;;;;;;;12.14;78.58;100576.86;105880;1271;24243;-59
2022/07/07 04:18:08;;;;;;;11.60;3.00;;;;;;;12.22;78.59;100571.96;106578;1262;26741;-51
2022/07/07 04:20:37;;;;;;;8.90;2.60;;;;;;;12.30;78.82;100570.11;105730;1271;24272;-52
2022/07/07 04:23:06;;;;;;;15.30;2.80;;;;;;;12.39;79.04;100567.41;105775;1271;26657;-50
2022/07/07 04:25:35;;;;;;;17.40;3.50;;;;;;;12.48;78.72;100568.73;105765;1271;24221;-53
2022/07/07 04:28:04;;;;;;;14.70;2.90;;;;;;;12.56;78.69;100567.80;106060;1273;24298;-49
2022/07/07 04:30:33;;;;;;;11.30;2.30;;;;;;;12.65;78.45;100562.90;106043;1271;24215;-51
2022/07/07 04:33:03;;;;;;;15.00;3.90;;;;;;;12.73;78.59;100565.93;106108;1271;25477;-51
2022/07/07 04:35:32;;;;;;;10.80;2.80;;;;;;;12.80;78.31;100563.54;106008;1271;22688;-49
2022/07/07 04:38:01;;;;;;;12.10;2.90;;;;;;;12.87;78.39;100562.73;106187;1271;27617;-54
2022/07/07 04:40:30;;;;;;;13.10;3.70;;;;;;;12.93;78.34;100562.11;106129;1271;25236;-51
2022/07/07 04:42:59;;;;;;;14.70;3.20;;;;;;;13.00;78.45;100559.21;106331;1271;25588;-51
2022/07/07 04:45:29;;;;;;;11.70;3.40;;;;;;;13.07;78.43;100559.89;106170;1271;22560;-52
2022/07/07 04:47:58;;;;;;;11.50;2.50;;;;;;;13.11;78.50;100553.31;105899;1271;24240;-48
2022/07/07 04:50:27;;;;;;;12.40;2.50;;;;;;;13.16;78.43;100556.04;105998;1271;22589;-52
2022/07/07 04:52:56;;;;;;;14.10;3.00;;;;;;;13.21;78.47;100549.17;106100;1271;25341;-49
2022/07/07 04:55:26;;;;;;;12.10;2.60;;;;;;;13.25;78.47;100551.05;106065;1271;25310;-52
2022/07/07 04:57:56;;;;;;;13.50;3.50;;;;;;;13.30;78.49;100547.70;105971;1271;25239;-52
2022/07/07 05:00:27;;;;;;;14.80;3.30;;;;;;;13.36;78.51;100548.05;106171;1271;22981;-55
2022/07/07 05:02:56;;;;;;;12.50;3.50;;;;;;;13.42;78.40;100543.88;106253;1271;22555;-51
2022/07/07 05:05:25;;;;;;;22.40;3.90;;;;;;;13.50;78.41;100546.32;106103;1271;22622;-50
2022/07/07 05:07:54;;;;;;;14.70;3.40;;;;;;;13.57;78.40;100547.73;106068;1271;25324;-50
2022/07/07 05:10:24;;;;;;;14.80;3.10;;;;;;;13.65;78.12;100553.09;106022;1271;23947;-50
2022/07/07 05:12:53;;;;;;;16.30;3.00;;;;;;;13.74;77.77;100552.41;106362;1271;23049;-51
2022/07/07 05:15:22;;;;;;;11.10;2.70;;;;;;;13.82;77.63;100548.06;105854;1271;22553;-49
2022/07/07 05:17:51;;;;;;;11.80;2.70;;;;;;;13.92;77.65;100546.95;105842;1271;23495;-49
2022/07/07 05:20:20;;;;;;;17.60;2.80;;;;;;;14.05;77.75;100548.05;105889;1271;24374;-51
2022/07/07 05:22:49;;;;;;;19.50;3.20;;;;;;;14.19;77.49;100544.30;105982;1271;22534;-57
2022/07/07 05:25:18;;;;;;;11.10;2.90;;;;;;;14.33;77.44;100544.45;106142;1271;25503;-50
2022/07/07 05:27:48;;;;;;;11.90;2.80;;;;;;;14.49;77.39;100538.41;105819;1271;25874;-53
2022/07/07 05:30:19;;;;;;;10.90;2.90;;;;;;;14.65;77.16;100535.05;105927;1270;22535;-51
2022/07/07 05:32:48;;;;;;;16.10;2.70;;;;;;;14.81;76.60;100535.52;105849;1271;22556;-53
2022/07/07 05:35:17;;;;;;;12.20;3.00;;;;;;;14.95;76.50;100535.40;105972;1271;24401;-48
2022/07/07 05:37:47;;;;;;;12.10;2.60;;;;;;;15.08;76.03;100539.36;105821;1271;24299;-50
2022/07/07 05:40:16;;;;;;;15.40;2.70;;;;;;;15.21;75.90;100538.10;105959;1271;22580;-49
2022/07/07 05:42:45;;;;;;;14.30;2.60;;;;;;;15.34;75.20;100538.67;105963;1271;22576;-49
2022/07/07 05:45:14;;;;;;;8.10;2.40;;;;;;;15.44;74.82;100536.13;105993;1271;22556;-49
2022/07/07 05:47:42;;;;;;;10.20;2.00;;;;;;;15.53;74.47;100537.25;105885;1271;24304;-52
2022/07/07 05:50:12;;;;;;;15.80;2.40;;;;;;;15.63;74.38;100537.64;106108;1271;22592;-52
2022/07/07 05:52:41;;;;;;;14.80;2.30;;;;;;;15.71;74.15;100535.05;105974;1271;25442;-51
2022/07/07 05:55:11;;;;;;;10.60;2.40;;;;;;;15.80;74.54;100532.33;106074;1271;22615;-49
2022/07/07 05:57:40;;;;;;;19.10;3.40;;;;;;;15.90;73.89;100530.34;106011;1271;24917;-49
2022/07/07 06:00:11;;;;;;;12.00;3.20;;;;;;;15.96;73.49;100533.77;105983;1271;25486;-50
2022/07/07 06:02:40;;;;;;;13.70;2.70;;;;;;;16.00;72.75;100535.02;106119;1271;22594;-50
2022/07/07 06:05:10;;;;;;;11.00;2.90;;;;;;;16.03;72.39;100537.07;106056;1271;22556;-49
2022/07/07 06:07:39;;;;;;;10.30;2.30;;;;;;;16.06;72.58;100538.81;105881;1271;25365;-52
2022/07/07 06:10:11;;;;;;;12.20;2.20;;;;;;;16.12;72.44;100537.03;105750;1271;22544;-53
2022/07/07 06:12:40;;;;;;;14.40;2.50;;;;;;;16.17;71.96;100534.38;105927;1271;25201;-49
2022/07/07 06:15:11;;;;;;;13.90;3.00;;;;;;;16.20;72.01;100529.10;105963;1271;22595;-52
2022/07/07 06:17:40;;;;;;;14.00;2.80;;;;;;;16.27;71.86;100529.46;105916;1271;22649;-50
2022/07/07 06:20:12;;;;;;;12.30;2.70;;;;;;;16.33;71.52;100529.36;105754;1270;24414;-51
2022/07/07 06:22:42;;;;;;;13.60;2.90;;;;;;;16.34;70.95;100531.46;105983;1271;22657;-52
2022/07/07 06:25:11;;;;;;;13.20;2.50;;;;;;;16.34;70.63;100527.30;105830;1271;22780;-52
2022/07/07 06:27:41;;;;;;;12.90;2.50;;;;;;;16.33;70.61;100530.02;105938;1271;22624;-49
2022/07/07 06:30:12;;;;;;;12.30;2.20;;;;;;;16.34;70.29;100529.00;105950;1271;24421;-51
2022/07/07 06:32:41;;;;;;;12.70;1.80;;;;;;;16.35;70.31;100525.02;105948;1271;25224;-52
2022/07/07 06:35:11;;;;;;;12.20;2.20;;;;;;;16.37;70.22;100524.45;105954;1271;26737;-50
2022/07/07 06:37:40;;;;;;;9.50;2.30;;;;;;;16.37;69.62;100522.29;105859;1271;22741;-50
2022/07/07 06:40:12;;;;;;;9.50;1.80;;;;;;;16.36;69.58;100521.22;105958;1271;25487;-54
2022/07/07 06:42:42;;;;;;;11.30;1.90;;;;;;;16.40;69.91;100525.27;106024;1271;22991;-54
2022/07/07 06:45:12;;;;;;;8.60;1.70;;;;;;;16.50;69.83;100517.84;105897;1271;22560;-53
2022/07/07 06:47:41;;;;;;;10.60;1.80;;;;;;;16.63;69.90;100517.24;105948;1271;22624;-50
2022/07/07 06:50:10;;;;;;;8.50;2.00;;;;;;;16.76;68.84;100515.17;105697;1271;25367;-50
2022/07/07 06:52:39;;;;;;;12.60;2.20;;;;;;;16.83;68.72;100511.11;105891;1271;22839;-53
2022/07/07 06:55:10;;;;;;;10.80;1.80;;;;;;;16.96;68.17;100511.27;105869;1271;24295;-51
2022/07/07 06:57:39;;;;;;;12.40;1.50;;;;;;;17.10;67.31;100509.04;105896;1271;22557;-52
2022/07/07 07:00:10;;;;;;;9.70;1.40;;;;;;;17.22;67.05;100506.36;106202;1271;22560;-52
2022/07/07 07:02:44;;;;;;;7.80;1.40;;;;;;;17.34;65.80;100505.29;106029;1271;22611;-55
2022/07/07 07:05:13;;;;;;;9.50;1.50;;;;;;;17.41;65.41;100508.04;105984;1271;22526;-49
2022/07/07 07:07:42;;;;;;;9.60;1.30;;;;;;;17.50;65.36;100504.05;106043;1271;22544;-52
2022/07/07 07:10:11;;;;;;;6.60;1.30;;;;;;;17.63;65.48;100503.91;106017;1271;25551;-51
2022/07/07 07:12:41;;;;;;;7.90;1.30;;;;;;;17.78;65.58;100501.95;106081;1271;24214;-51
2022/07/07 07:15:11;;;;;;;10.30;1.40;;;;;;;17.89;65.38;100500.47;105950;1271;22560;-52
2022/07/07 07:17:39;;;;;;;;;;;;;;;18.05;65.55;100501.27;105941;1271;22537;-51
2022/07/07 07:20:12;;;;;;;8.50;1.10;;;;;;;18.24;64.18;100500.15;105676;1271;22553;-52
2022/07/07 07:22:41;;;;;;;7.40;1.00;;;;;;;18.40;63.71;100497.30;105801;1271;22554;-52
2022/07/07 07:25:11;;;;;;;8.50;1.20;;;;;;;18.52;62.63;100493.25;105917;1271;23165;-52
2022/07/07 07:27:40;;;;;;;8.80;2.30;;;;;;;18.64;62.55;100490.62;105982;1271;22580;-54
2022/07/07 07:30:11;;;;;;;4.50;1.00;;;;;;;18.74;61.61;100493.29;105979;1271;22570;-51
2022/07/07 07:32:40;;;;;;;10.30;0.90;;;;;;;18.75;60.76;100492.98;105814;1271;22562;-52
2022/07/07 07:35:10;;;;;;;5.30;0.80;;;;;;;18.72;60.52;100490.42;105925;1271;24237;-51
2022/07/07 07:37:39;;;;;;;3.90;0.90;;;;;;;18.70;60.43;100484.29;105983;1271;22534;-52
2022/07/07 07:40:12;;;;;;;5.60;1.10;;;;;;;18.71;60.39;100487.21;105930;1271;25461;-52
2022/07/07 07:42:41;;;;;;;7.20;1.20;;;;;;;18.74;59.95;100485.01;106067;1271;25472;-52
2022/07/07 07:45:11;;;;;;;5.60;0.90;;;;;;;18.82;59.32;100482.52;105785;1271;25530;-50
2022/07/07 07:47:42;;;;;;;6.30;0.70;;;;;;;18.91;58.67;100481.45;105808;1271;24227;-51
2022/07/07 07:50:14;;;;;;;4.10;0.50;;;;;;;19.01;58.37;100476.54;106323;1271;22703;-52
2022/07/07 07:52:43;;;;;;;5.40;0.50;;;;;;;19.16;58.24;100472.55;106020;1271;22537;-51
2022/07/07 07:55:14;;;;;;;4.30;0.60;;;;;;;19.29;58.04;100471.06;105703;1271;24202;-54
2022/07/07 07:57:44;;;;;;;5.20;0.50;;;;;;;19.44;57.93;100472.34;106101;1271;22658;-51
2022/07/07 08:00:17;;;;;;;6.70;0.70;;;;;;;19.57;57.07;100473.02;106009;1271;27368;-52
2022/07/07 08:02:47;;;;;;;4.90;0.50;;;;;;;19.68;56.14;100471.27;105910;1270;22535;-50
2022/07/07 08:05:17;;;;;;;4.30;0.50;;;;;;;19.71;55.38;100468.23;105977;1271;22561;-54
2022/07/07 08:07:45;;;;;;;;;;;;;;;19.74;55.08;100466.02;106015;1271;22531;-52
2022/07/07 08:10:16;;;;;;;4.20;0.50;;;;;;;19.83;54.38;100471.52;106207;1271;22536;-51
2022/07/07 08:12:45;;;;;;;;;;;;;;;19.89;53.80;100459.73;106523;1271;22679;-49
2022/07/07 08:15:14;;;;;;;5.60;0.50;;;;;;;19.93;53.84;100459.20;106583;1271;24188;-50
2022/07/07 08:17:44;;;;;;;5.90;0.60;;;;;;;19.98;52.89;100459.01;106693;1271;22565;-52
2022/07/07 08:20:13;;;;;;;4.70;0.60;;;;;;;20.02;52.72;100461.64;106472;1271;25255;-51
2022/07/07 08:22:42;;;;;;;5.30;0.50;;;;;;;20.08;52.88;100456.59;106391;1271;23101;-50
2022/07/07 08:25:11;;;;;;;5.90;0.50;;;;;;;20.18;52.47;100458.76;106361;1271;22556;-53
2022/07/07 08:27:40;;;;;;;2.90;0.40;;;;;;;20.27;52.19;100455.19;106578;1271;25367;-52
2022/07/07 08:30:10;;;;;;;3.50;0.40;;;;;;;20.34;52.05;100452.48;106429;1271;22934;-52
2022/07/07 08:32:43;;;;;;;3.50;0.60;;;;;;;20.40;51.56;100447.66;106307;1271;22573;-49
2022/07/07 08:35:13;;;;;;;3.20;0.50;;;;;;;20.48;50.35;100449.60;106324;1271;25405;-51
2022/07/07 08:37:42;;;;;;;3.50;0.40;;;;;;;20.52;50.51;100448.43;106246;1271;22556;-53
2022/07/07 08:40:13;;;;;;;4.90;0.50;;;;;;;20.60;50.49;100451.70;107422;1273;25245;-51
2022/07/07 08:42:43;;;;;;;2.70;0.30;;;;;;;20.67;49.97;100442.95;106505;1271;26450;-50
2022/07/07 08:45:13;;;;;;;5.00;0.50;;;;;;;20.70;49.29;100442.73;106387;1271;24214;-51
2022/07/07 08:47:43;;;;;;;5.40;0.60;;;;;;;20.65;49.18;100440.03;106576;1271;25063;-53
2022/07/07 08:50:11;;;;;;;6.30;0.50;;;;;;;20.71;49.79;100435.29;106448;1271;22559;-52
2022/07/07 08:52:41;;;;;;;3.80;0.40;;;;;;;20.88;49.76;100428.88;106224;1271;22662;-52
2022/07/07 08:55:12;;;;;;;3.90;0.50;;;;;;;21.08;48.68;100433.80;106460;1271;22588;-52
2022/07/07 08:57:45;;;;;;;3.00;0.20;;;;;;;21.21;47.55;100434.27;106582;1271;22620;-51
2022/07/07 09:00:16;;;;;;;3.60;0.40;;;;;;;21.25;47.75;100430.77;106913;1271;22609;-54
2022/07/07 09:02:55;;;;;;;2.80;0.30;;;;;;;21.31;47.74;100433.55;106374;1271;25405;-53
2022/07/07 09:05:25;;;;;;;5.50;0.40;;;;;;;21.44;47.63;100436.22;106228;1271;22619;-51
2022/07/07 09:07:54;;;;;;;3.30;0.40;;;;;;;21.54;47.13;100439.82;106304;1271;25586;-50
2022/07/07 09:10:37;;;;;;;8.60;0.50;;;;;;;21.57;47.03;100436.64;106338;1271;22547;-56
2022/07/07 09:13:23;;;;;;;3.00;0.20;;;;;;;21.63;46.37;100434.96;106516;1271;23026;-56
2022/07/07 09:15:54;;;;;;;4.00;0.30;;;;;;;21.68;45.67;100436.91;106706;1271;22554;-57
2022/07/07 09:18:38;;;;;;;3.60;0.30;;;;;;;21.76;45.18;100436.16;106197;1274;22767;-56
2022/07/07 09:21:33;;;;;;;2.70;0.30;;;;;;;21.83;45.08;100431.85;106195;1271;22542;-56
2022/07/07 09:24:14;;;;;;;6.90;0.30;;;;;;;21.92;45.18;100431.84;106296;1271;22734;-56
2022/07/07 09:26:45;;;;;;;1.90;0.30;;;;;;;21.97;44.60;100429.55;107993;1271;22529;-57
2022/07/07 09:29:18;;;;;;;7.50;0.50;;;;;;;21.97;43.95;100429.96;106247;1271;22688;-52
2022/07/07 09:31:58;;;;;;;35.10;1.90;;;;;;;21.98;43.57;100430.80;106120;1271;22553;-55
2022/07/07 09:34:29;;;;;;;2.90;0.30;;;;;;;22.01;42.99;100424.32;105969;1271;22581;-54
2022/07/07 09:39:47;;;;;;;2.40;0.10;;;;;;;21.98;42.63;100425.79;105692;1271;22838;-54
2022/07/07 09:42:23;;;;;;;11.30;0.50;;;;;;;21.90;42.79;100418.75;105683;1271;22488;-54
2022/07/07 09:44:55;;;;;;;6.80;0.40;;;;;;;21.86;43.05;100418.85;105793;1271;24428;-54
2022/07/07 09:47:25;;;;;;;4.00;0.30;;;;;;;21.79;42.47;100424.83;105904;1271;22546;-51
2022/07/07 09:50:01;;;;;;;5.00;0.30;;;;;;;21.66;42.29;100423.17;105762;1271;25446;-54
2022/07/07 09:52:31;;;;;;;5.40;0.20;;;;;;;21.59;42.58;100421.06;106050;1271;25524;-51
2022/07/07 09:55:01;;;;;;;2.20;0.30;;;;;;;21.60;42.57;100421.60;106154;1271;22544;-51
2022/07/07 09:57:31;;;;;;;4.30;0.10;;;;;;;21.63;42.17;100420.34;105951;1275;22536;-51
2022/07/07 10:00:01;;;;;;;2.10;0.30;;;;;;;21.66;42.39;100415.06;106778;1271;22683;-54
2022/07/07 10:02:30;;;;;;;5.80;0.40;;;;;;;21.70;42.17;100417.64;106004;1271;22551;-51
2022/07/07 10:05:00;;;;;;;3.10;0.20;;;;;;;21.68;41.85;100418.30;105932;1271;22564;-53
2022/07/07 10:07:32;;;;;;;3.60;0.30;;;;;;;21.66;41.66;100416.36;105857;1271;24338;-56
2022/07/07 10:10:03;;;;;;;6.60;0.30;;;;;;;21.65;41.82;100420.41;106234;1271;24320;-51
2022/07/07 10:12:33;;;;;;;2.50;0.30;;;;;;;21.65;41.27;100421.85;106023;1271;22694;-54
2022/07/07 10:15:11;;;;;;;2.40;0.20;;;;;;;21.61;41.16;100418.73;105972;1271;22542;-51
2022/07/07 10:18:14;;;;;;;3.60;0.30;;;;;;;21.58;41.46;100419.61;106320;1265;22540;-50
2022/07/07 10:21:52;;;;;;;1.40;0.20;;;;;;;21.60;41.87;100422.77;106558;1271;22570;-55
2022/07/07 10:24:42;;;;;;;1.60;0.30;;;;;;;21.69;41.59;100425.40;106156;1277;25485;-56
2022/07/07 10:27:15;;;;;;;5.90;0.40;;;;;;;21.74;41.52;100422.04;106438;1277;25297;-54
2022/07/07 10:29:46;;;;;;;1.50;0.20;;;;;;;21.76;41.38;100424.27;105230;1280;24310;-54
2022/07/07 10:32:18;;;;;;;3.80;0.40;;;;;;;21.84;41.98;100422.14;105452;1281;25193;-55
2022/07/07 10:34:51;;;;;;;3.60;0.20;;;;;;;21.96;41.77;100416.34;105782;1278;22560;-52
2022/07/07 10:37:21;;;;;;;3.70;0.20;;;;;;;22.00;41.34;100420.05;105780;1278;24251;-54
2022/07/07 10:39:51;;;;;;;7.50;0.50;;;;;;;21.94;41.69;100424.28;105874;1277;22635;-55
2022/07/07 10:43:00;;;;;;;3.80;0.30;;;;;;;21.78;42.19;100426.58;107915;1277;22995;-57
2022/07/07 10:49:11;;;;;;;2.10;0.40;;;;;;;21.46;43.03;100430.15;109188;1262;22485;-55
2022/07/07 10:52:44;;;;;;;6.40;0.40;;;;;;;21.36;43.94;100433.98;108519;1271;25522;-56
2022/07/07 10:55:49;;;;;;;2.40;0.20;;;;;;;21.37;44.71;100437.63;106178;1273;27729;-56
2022/07/07 10:58:56;;;;;;;4.90;0.50;;;;;;;21.33;44.43;100440.50;109386;1273;25543;-56
2022/07/07 11:01:28;;;;;;;2.90;0.30;;;;;;;21.32;44.56;100434.02;105851;1274;25494;-56
2022/07/07 11:03:57;;;;;;;4.30;0.40;;;;;;;21.35;45.10;100433.73;106063;1273;22537;-55
2022/07/07 11:06:26;;;;;;;9.90;0.40;;;;;;;21.38;44.74;100437.13;105920;1274;24320;-52
2022/07/07 11:09:03;;;;;;;7.10;0.40;;;;;;;21.30;44.78;100434.05;105440;1273;22563;-55
2022/07/07 11:11:32;;;;;;;6.90;0.50;;;;;;;21.20;44.72;100433.87;105789;1273;24322;-51
2022/07/07 11:14:09;;;;;;;2.00;0.30;;;;;;;21.10;45.29;100437.08;106048;1273;22624;-54
2022/07/07 11:16:39;;;;;;;6.20;0.40;;;;;;;21.03;45.55;100437.57;105689;1273;22555;-52
2022/07/07 11:19:10;;;;;;;2.40;0.50;;;;;;;20.98;45.36;100433.52;106095;1273;24319;-54
2022/07/07 11:21:41;;;;;;;4.20;0.40;;;;;;;20.94;45.72;100427.98;105635;1273;22712;-51
2022/07/07 11:24:21;;;;;;;3.20;0.50;;;;;;;20.93;46.05;100428.34;105834;1273;23194;-53
2022/07/07 11:27:02;;;;;;;2.40;0.50;;;;;;;20.95;46.26;100427.27;105582;1273;25064;-53
2022/07/07 11:29:32;;;;;;;3.60;0.40;;;;;;;20.94;46.12;100426.83;105525;1274;22644;-50
2022/07/07 11:32:10;;;;;;;3.00;0.50;;;;;;;20.91;46.49;100428.95;105576;1274;24326;-50
2022/07/07 11:34:43;;;;;;;8.80;0.90;;;;;;;20.91;46.77;100429.42;105665;1273;24091;-52
2022/07/07 11:37:24;;;;;;;5.80;0.60;;;;;;;20.89;46.47;100427.64;105924;1273;24355;-51
2022/07/07 11:39:53;;;;;;;7.00;0.50;;;;;;;20.88;47.07;100434.23;105617;1273;22575;-55
2022/07/07 11:42:23;;;;;;;2.80;0.40;;;;;;;20.91;47.03;100430.28;105893;1273;24309;-52